sensor_id;sensor_type;location;lat;lon;timestamp;P1;durP1;ratioP1;P2;durP2;ratioP2
41719;SDS011;27405;53.316;-6.294;2023-02-03T00:00:09;11.60;;;2.40;;
41719;SDS011;27405;53.316;-6.294;2023-02-03T00:02:35;15.52;;;2.75;;
41719;SDS011;27405;53.316;-6.294;2023-02-03T00:05:01;17.08;;;2.35;;
41719;SDS011;27405;53.316;-6.294;2023-02-03T00:07:27;16.98;;;2.53;;
41719;SDS011;27405;53.316;-6.294;2023-02-03T00:09:54;8.95;;;2.22;;
41719;SDS011;27405;53.316;-6.294;2023-02-03T00:12:21;12.50;;;1.80;;
41719;SDS011;27405;53.316;-6.294;2023-02-03T00:14:47;13.45;;;2.45;;
41719;SDS011;27405;53.316;-6.294;2023-02-03T00:17:12;12.68;;;2.15;;
41719;SDS011;27405;53.316;-6.294;2023-02-03T00:19:39;13.52;;;2.33;;
41719;SDS011;27405;53.316;-6.294;2023-02-03T00:22:05;15.60;;;2.92;;
41719;SDS011;27405;53.316;-6.294;2023-02-03T00:24:30;19.25;;;2.63;;
41719;SDS011;27405;53.316;-6.294;2023-02-03T00:26:56;13.98;;;2.83;;
41719;SDS011;27405;53.316;-6.294;2023-02-03T00:29:22;14.30;;;2.30;;
41719;SDS011;27405;53.316;-6.294;2023-02-03T00:31:50;15.55;;;2.50;;
41719;SDS011;27405;53.316;-6.294;2023-02-03T00:34:17;16.27;;;2.35;;
41719;SDS011;27405;53.316;-6.294;2023-02-03T00:36:42;14.23;;;2.55;;
41719;SDS011;27405;53.316;-6.294;2023-02-03T00:39:10;14.05;;;2.67;;
41719;SDS011;27405;53.316;-6.294;2023-02-03T00:41:36;20.65;;;2.83;;
41719;SDS011;27405;53.316;-6.294;2023-02-03T00:44:02;11.57;;;2.45;;
41719;SDS011;27405;53.316;-6.294;2023-02-03T00:46:27;17.00;;;2.58;;
41719;SDS011;27405;53.316;-6.294;2023-02-03T00:48:53;11.95;;;2.25;;
41719;SDS011;27405;53.316;-6.294;2023-02-03T00:51:19;12.57;;;2.42;;
41719;SDS011;27405;53.316;-6.294;2023-02-03T00:53:46;14.77;;;2.38;;
41719;SDS011;27405;53.316;-6.294;2023-02-03T00:56:12;17.40;;;2.20;;
41719;SDS011;27405;53.316;-6.294;2023-02-03T00:58:38;16.52;;;2.97;;
41719;SDS011;27405;53.316;-6.294;2023-02-03T01:01:05;13.93;;;2.50;;
41719;SDS011;27405;53.316;-6.294;2023-02-03T01:03:31;21.40;;;2.85;;
41719;SDS011;27405;53.316;-6.294;2023-02-03T01:06:06;17.27;;;3.35;;
41719;SDS011;27405;53.316;-6.294;2023-02-03T01:08:40;14.23;;;2.42;;
41719;SDS011;27405;53.316;-6.294;2023-02-03T01:11:07;21.08;;;3.03;;
41719;SDS011;27405;53.316;-6.294;2023-02-03T01:13:34;17.13;;;2.15;;
41719;SDS011;27405;53.316;-6.294;2023-02-03T01:16:00;16.70;;;3.05;;
41719;SDS011;27405;53.316;-6.294;2023-02-03T01:18:26;16.65;;;3.00;;
41719;SDS011;27405;53.316;-6.294;2023-02-03T01:20:51;12.15;;;2.17;;
41719;SDS011;27405;53.316;-6.294;2023-02-03T01:23:17;14.18;;;2.17;;
41719;SDS011;27405;53.316;-6.294;2023-02-03T01:25:42;15.90;;;2.78;;
41719;SDS011;27405;53.316;-6.294;2023-02-03T01:28:08;16.67;;;2.97;;
41719;SDS011;27405;53.316;-6.294;2023-02-03T01:30:34;14.55;;;2.35;;
41719;SDS011;27405;53.316;-6.294;2023-02-03T01:33:00;10.00;;;2.35;;
41719;SDS011;27405;53.316;-6.294;2023-02-03T01:35:25;10.90;;;2.60;;
41719;SDS011;27405;53.316;-6.294;2023-02-03T01:37:51;15.80;;;2.47;;
41719;SDS011;27405;53.316;-6.294;2023-02-03T01:40:17;12.07;;;2.50;;
41719;SDS011;27405;53.316;-6.294;2023-02-03T01:42:43;15.20;;;2.72;;
41719;SDS011;27405;53.316;-6.294;2023-02-03T01:45:09;13.32;;;2.53;;
41719;SDS011;27405;53.316;-6.294;2023-02-03T01:47:38;19.15;;;2.97;;
41719;SDS011;27405;53.316;-6.294;2023-02-03T01:50:17;19.60;;;4.45;;
41719;SDS011;27405;53.316;-6.294;2023-02-03T01:53:01;13.45;;;2.53;;
41719;SDS011;27405;53.316;-6.294;2023-02-03T01:55:34;14.80;;;2.63;;
41719;SDS011;27405;53.316;-6.294;2023-02-03T01:58:10;12.95;;;2.92;;
41719;SDS011;27405;53.316;-6.294;2023-02-03T02:00:49;8.63;;;2.00;;
41719;SDS011;27405;53.316;-6.294;2023-02-03T02:03:17;12.43;;;2.22;;
41719;SDS011;27405;53.316;-6.294;2023-02-03T02:08:17;14.32;;;2.45;;
41719;SDS011;27405;53.316;-6.294;2023-02-03T02:10:43;12.80;;;2.53;;
41719;SDS011;27405;53.316;-6.294;2023-02-03T02:13:10;12.75;;;2.45;;
41719;SDS011;27405;53.316;-6.294;2023-02-03T02:15:40;13.65;;;2.83;;
41719;SDS011;27405;53.316;-6.294;2023-02-03T02:34:27;15.50;;;2.90;;
41719;SDS011;27405;53.316;-6.294;2023-02-03T02:37:03;18.67;;;3.13;;
41719;SDS011;27405;53.316;-6.294;2023-02-03T02:40:13;16.17;;;3.28;;
41719;SDS011;27405;53.316;-6.294;2023-02-03T02:45:44;15.63;;;3.42;;
41719;SDS011;27405;53.316;-6.294;2023-02-03T02:48:15;18.45;;;2.70;;
41719;SDS011;27405;53.316;-6.294;2023-02-03T02:50:47;15.00;;;2.88;;
41719;SDS011;27405;53.316;-6.294;2023-02-03T02:53:18;17.45;;;2.55;;
41719;SDS011;27405;53.316;-6.294;2023-02-03T02:58:13;16.80;;;3.67;;
41719;SDS011;27405;53.316;-6.294;2023-02-03T03:00:40;12.25;;;2.10;;
41719;SDS011;27405;53.316;-6.294;2023-02-03T03:03:18;15.60;;;3.15;;
41719;SDS011;27405;53.316;-6.294;2023-02-03T03:05:50;12.05;;;3.03;;
41719;SDS011;27405;53.316;-6.294;2023-02-03T03:08:19;17.63;;;2.85;;
41719;SDS011;27405;53.316;-6.294;2023-02-03T03:10:53;14.57;;;2.85;;
41719;SDS011;27405;53.316;-6.294;2023-02-03T03:13:21;17.40;;;3.20;;
41719;SDS011;27405;53.316;-6.294;2023-02-03T03:15:51;12.35;;;2.60;;
41719;SDS011;27405;53.316;-6.294;2023-02-03T03:18:29;11.38;;;2.40;;
41719;SDS011;27405;53.316;-6.294;2023-02-03T03:21:28;16.33;;;2.85;;
41719;SDS011;27405;53.316;-6.294;2023-02-03T03:24:00;11.82;;;2.08;;
41719;SDS011;27405;53.316;-6.294;2023-02-03T03:26:31;15.60;;;2.50;;
41719;SDS011;27405;53.316;-6.294;2023-02-03T03:29:18;11.75;;;2.45;;
41719;SDS011;27405;53.316;-6.294;2023-02-03T03:32:05;4.70;;;1.40;;
41719;SDS011;27405;53.316;-6.294;2023-02-03T03:34:31;4.28;;;1.10;;
41719;SDS011;27405;53.316;-6.294;2023-02-03T03:37:00;12.18;;;1.85;;
41719;SDS011;27405;53.316;-6.294;2023-02-03T03:39:46;7.50;;;1.40;;
41719;SDS011;27405;53.316;-6.294;2023-02-03T03:45:00;6.90;;;1.10;;
41719;SDS011;27405;53.316;-6.294;2023-02-03T03:47:35;9.75;;;1.90;;
41719;SDS011;27405;53.316;-6.294;2023-02-03T03:50:20;5.22;;;1.50;;
41719;SDS011;27405;53.316;-6.294;2023-02-03T03:52:49;6.95;;;1.67;;
41719;SDS011;27405;53.316;-6.294;2023-02-03T03:55:17;6.20;;;1.25;;
41719;SDS011;27405;53.316;-6.294;2023-02-03T03:58:06;5.60;;;1.33;;
41719;SDS011;27405;53.316;-6.294;2023-02-03T04:00:38;9.85;;;1.83;;
41719;SDS011;27405;53.316;-6.294;2023-02-03T04:03:51;11.70;;;1.60;;
41719;SDS011;27405;53.316;-6.294;2023-02-03T04:06:01;10.93;;;1.70;;
41719;SDS011;27405;53.316;-6.294;2023-02-03T04:08:27;8.73;;;1.60;;
41719;SDS011;27405;53.316;-6.294;2023-02-03T04:10:53;8.70;;;1.85;;
41719;SDS011;27405;53.316;-6.294;2023-02-03T04:13:19;7.15;;;1.55;;
41719;SDS011;27405;53.316;-6.294;2023-02-03T04:15:45;6.28;;;1.70;;
41719;SDS011;27405;53.316;-6.294;2023-02-03T04:18:11;8.82;;;1.77;;
41719;SDS011;27405;53.316;-6.294;2023-02-03T04:20:38;8.85;;;1.38;;
41719;SDS011;27405;53.316;-6.294;2023-02-03T04:23:04;9.63;;;1.70;;
41719;SDS011;27405;53.316;-6.294;2023-02-03T04:25:30;9.57;;;1.85;;
41719;SDS011;27405;53.316;-6.294;2023-02-03T04:27:55;8.95;;;2.15;;
41719;SDS011;27405;53.316;-6.294;2023-02-03T04:30:21;6.65;;;1.40;;
41719;SDS011;27405;53.316;-6.294;2023-02-03T04:32:47;10.57;;;2.10;;
41719;SDS011;27405;53.316;-6.294;2023-02-03T04:35:13;7.93;;;2.10;;
41719;SDS011;27405;53.316;-6.294;2023-02-03T04:37:39;11.23;;;1.70;;
41719;SDS011;27405;53.316;-6.294;2023-02-03T04:40:05;6.38;;;1.58;;
41719;SDS011;27405;53.316;-6.294;2023-02-03T04:42:32;9.10;;;1.75;;
41719;SDS011;27405;53.316;-6.294;2023-02-03T04:44:57;8.07;;;1.67;;
41719;SDS011;27405;53.316;-6.294;2023-02-03T04:47:23;7.65;;;1.63;;
41719;SDS011;27405;53.316;-6.294;2023-02-03T04:49:49;11.60;;;1.85;;
41719;SDS011;27405;53.316;-6.294;2023-02-03T04:52:15;9.20;;;1.70;;
41719;SDS011;27405;53.316;-6.294;2023-02-03T04:54:41;9.73;;;1.70;;
41719;SDS011;27405;53.316;-6.294;2023-02-03T04:57:07;5.35;;;1.70;;
41719;SDS011;27405;53.316;-6.294;2023-02-03T04:59:32;10.75;;;1.83;;
41719;SDS011;27405;53.316;-6.294;2023-02-03T05:02:00;8.93;;;1.52;;
41719;SDS011;27405;53.316;-6.294;2023-02-03T05:04:32;12.77;;;1.77;;
41719;SDS011;27405;53.316;-6.294;2023-02-03T05:06:58;8.88;;;1.30;;
41719;SDS011;27405;53.316;-6.294;2023-02-03T05:09:24;11.20;;;1.42;;
41719;SDS011;27405;53.316;-6.294;2023-02-03T05:11:49;12.25;;;1.90;;
41719;SDS011;27405;53.316;-6.294;2023-02-03T05:14:15;8.55;;;1.85;;
41719;SDS011;27405;53.316;-6.294;2023-02-03T05:16:41;9.27;;;1.67;;
41719;SDS011;27405;53.316;-6.294;2023-02-03T05:19:06;12.50;;;1.98;;
41719;SDS011;27405;53.316;-6.294;2023-02-03T05:21:32;7.15;;;1.40;;
41719;SDS011;27405;53.316;-6.294;2023-02-03T05:23:58;8.25;;;1.30;;
41719;SDS011;27405;53.316;-6.294;2023-02-03T05:26:24;12.93;;;2.42;;
41719;SDS011;27405;53.316;-6.294;2023-02-03T05:28:50;10.40;;;2.05;;
41719;SDS011;27405;53.316;-6.294;2023-02-03T05:31:16;5.97;;;1.40;;
41719;SDS011;27405;53.316;-6.294;2023-02-03T05:33:41;6.10;;;1.55;;
41719;SDS011;27405;53.316;-6.294;2023-02-03T05:36:07;6.43;;;1.40;;
41719;SDS011;27405;53.316;-6.294;2023-02-03T05:38:33;9.32;;;1.27;;
41719;SDS011;27405;53.316;-6.294;2023-02-03T05:40:59;7.55;;;1.25;;
41719;SDS011;27405;53.316;-6.294;2023-02-03T05:43:51;5.45;;;1.20;;
41719;SDS011;27405;53.316;-6.294;2023-02-03T05:46:17;5.55;;;1.17;;
41719;SDS011;27405;53.316;-6.294;2023-02-03T05:48:43;6.30;;;1.30;;
41719;SDS011;27405;53.316;-6.294;2023-02-03T05:51:09;5.32;;;1.30;;
41719;SDS011;27405;53.316;-6.294;2023-02-03T05:53:35;9.43;;;1.77;;
41719;SDS011;27405;53.316;-6.294;2023-02-03T05:56:00;8.65;;;1.63;;
41719;SDS011;27405;53.316;-6.294;2023-02-03T05:58:26;5.43;;;1.50;;
41719;SDS011;27405;53.316;-6.294;2023-02-03T06:00:51;8.05;;;1.88;;
41719;SDS011;27405;53.316;-6.294;2023-02-03T06:03:17;9.20;;;1.55;;
41719;SDS011;27405;53.316;-6.294;2023-02-03T06:05:43;8.90;;;1.73;;
41719;SDS011;27405;53.316;-6.294;2023-02-03T06:08:09;6.43;;;1.65;;
41719;SDS011;27405;53.316;-6.294;2023-02-03T06:10:34;9.20;;;1.45;;
41719;SDS011;27405;53.316;-6.294;2023-02-03T06:13:10;6.35;;;1.40;;
41719;SDS011;27405;53.316;-6.294;2023-02-03T06:15:37;11.15;;;1.83;;
41719;SDS011;27405;53.316;-6.294;2023-02-03T06:18:04;11.80;;;2.03;;
41719;SDS011;27405;53.316;-6.294;2023-02-03T06:20:30;10.63;;;1.80;;
41719;SDS011;27405;53.316;-6.294;2023-02-03T06:22:55;9.00;;;1.85;;
41719;SDS011;27405;53.316;-6.294;2023-02-03T06:25:21;14.25;;;2.13;;
41719;SDS011;27405;53.316;-6.294;2023-02-03T06:27:48;11.88;;;2.72;;
41719;SDS011;27405;53.316;-6.294;2023-02-03T06:30:14;9.00;;;1.83;;
41719;SDS011;27405;53.316;-6.294;2023-02-03T06:32:40;15.15;;;2.25;;
41719;SDS011;27405;53.316;-6.294;2023-02-03T06:35:05;12.25;;;2.17;;
41719;SDS011;27405;53.316;-6.294;2023-02-03T06:37:32;12.52;;;2.15;;
41719;SDS011;27405;53.316;-6.294;2023-02-03T06:39:59;16.35;;;2.72;;
41719;SDS011;27405;53.316;-6.294;2023-02-03T06:42:25;10.95;;;2.30;;
41719;SDS011;27405;53.316;-6.294;2023-02-03T06:44:51;10.73;;;2.30;;
41719;SDS011;27405;53.316;-6.294;2023-02-03T06:47:17;9.70;;;2.25;;
41719;SDS011;27405;53.316;-6.294;2023-02-03T06:49:43;13.98;;;2.25;;
41719;SDS011;27405;53.316;-6.294;2023-02-03T06:52:08;12.10;;;1.95;;
41719;SDS011;27405;53.316;-6.294;2023-02-03T06:54:34;9.50;;;2.10;;
41719;SDS011;27405;53.316;-6.294;2023-02-03T06:57:00;9.27;;;1.58;;
41719;SDS011;27405;53.316;-6.294;2023-02-03T06:59:25;6.57;;;1.50;;
41719;SDS011;27405;53.316;-6.294;2023-02-03T07:01:51;9.60;;;1.67;;
41719;SDS011;27405;53.316;-6.294;2023-02-03T07:04:17;14.68;;;1.95;;
41719;SDS011;27405;53.316;-6.294;2023-02-03T07:06:43;8.75;;;1.67;;
41719;SDS011;27405;53.316;-6.294;2023-02-03T07:09:08;10.45;;;1.90;;
41719;SDS011;27405;53.316;-6.294;2023-02-03T07:11:34;12.93;;;2.20;;
41719;SDS011;27405;53.316;-6.294;2023-02-03T07:14:00;8.75;;;1.60;;
41719;SDS011;27405;53.316;-6.294;2023-02-03T07:16:26;10.00;;;1.75;;
41719;SDS011;27405;53.316;-6.294;2023-02-03T07:18:52;14.20;;;2.30;;
41719;SDS011;27405;53.316;-6.294;2023-02-03T07:21:18;7.63;;;1.90;;
41719;SDS011;27405;53.316;-6.294;2023-02-03T07:23:47;12.00;;;1.85;;
41719;SDS011;27405;53.316;-6.294;2023-02-03T07:26:13;13.60;;;1.98;;
41719;SDS011;27405;53.316;-6.294;2023-02-03T07:28:38;11.13;;;2.10;;
41719;SDS011;27405;53.316;-6.294;2023-02-03T07:31:05;10.00;;;1.73;;
41719;SDS011;27405;53.316;-6.294;2023-02-03T07:35:59;20.00;;;2.40;;
41719;SDS011;27405;53.316;-6.294;2023-02-03T07:38:26;12.38;;;2.30;;
41719;SDS011;27405;53.316;-6.294;2023-02-03T07:40:52;18.70;;;2.50;;
41719;SDS011;27405;53.316;-6.294;2023-02-03T07:43:18;8.48;;;1.60;;
41719;SDS011;27405;53.316;-6.294;2023-02-03T07:45:44;14.90;;;1.70;;
41719;SDS011;27405;53.316;-6.294;2023-02-03T07:48:10;13.63;;;2.00;;
41719;SDS011;27405;53.316;-6.294;2023-02-03T07:50:37;13.35;;;2.17;;
41719;SDS011;27405;53.316;-6.294;2023-02-03T07:53:03;14.27;;;2.60;;
41719;SDS011;27405;53.316;-6.294;2023-02-03T07:55:30;9.50;;;1.95;;
41719;SDS011;27405;53.316;-6.294;2023-02-03T07:57:56;14.07;;;2.22;;
41719;SDS011;27405;53.316;-6.294;2023-02-03T08:00:22;13.40;;;1.95;;
41719;SDS011;27405;53.316;-6.294;2023-02-03T08:02:48;17.73;;;2.33;;
41719;SDS011;27405;53.316;-6.294;2023-02-03T08:05:14;16.15;;;2.47;;
41719;SDS011;27405;53.316;-6.294;2023-02-03T08:07:41;12.13;;;2.10;;
41719;SDS011;27405;53.316;-6.294;2023-02-03T08:10:07;9.52;;;2.00;;
41719;SDS011;27405;53.316;-6.294;2023-02-03T08:12:34;17.23;;;2.17;;
41719;SDS011;27405;53.316;-6.294;2023-02-03T08:15:00;10.50;;;2.03;;
41719;SDS011;27405;53.316;-6.294;2023-02-03T08:17:27;10.10;;;2.20;;
41719;SDS011;27405;53.316;-6.294;2023-02-03T08:19:52;17.02;;;2.35;;
41719;SDS011;27405;53.316;-6.294;2023-02-03T08:22:18;14.38;;;2.05;;
41719;SDS011;27405;53.316;-6.294;2023-02-03T08:24:44;16.23;;;2.78;;
41719;SDS011;27405;53.316;-6.294;2023-02-03T08:27:14;15.88;;;2.47;;
41719;SDS011;27405;53.316;-6.294;2023-02-03T08:29:42;16.15;;;2.40;;
41719;SDS011;27405;53.316;-6.294;2023-02-03T08:32:18;19.77;;;3.08;;
41719;SDS011;27405;53.316;-6.294;2023-02-03T08:34:46;17.42;;;2.58;;
41719;SDS011;27405;53.316;-6.294;2023-02-03T08:37:16;17.95;;;2.95;;
41719;SDS011;27405;53.316;-6.294;2023-02-03T08:39:43;14.60;;;2.20;;
41719;SDS011;27405;53.316;-6.294;2023-02-03T08:42:09;19.05;;;3.00;;
41719;SDS011;27405;53.316;-6.294;2023-02-03T08:44:35;15.88;;;2.38;;
41719;SDS011;27405;53.316;-6.294;2023-02-03T08:47:03;11.33;;;2.17;;
41719;SDS011;27405;53.316;-6.294;2023-02-03T08:49:29;16.40;;;2.42;;
41719;SDS011;27405;53.316;-6.294;2023-02-03T08:51:55;11.60;;;2.45;;
41719;SDS011;27405;53.316;-6.294;2023-02-03T08:54:22;16.83;;;2.42;;
41719;SDS011;27405;53.316;-6.294;2023-02-03T08:56:48;18.10;;;2.50;;
41719;SDS011;27405;53.316;-6.294;2023-02-03T08:59:14;15.63;;;2.78;;
41719;SDS011;27405;53.316;-6.294;2023-02-03T09:01:41;14.32;;;2.33;;
41719;SDS011;27405;53.316;-6.294;2023-02-03T09:06:36;15.10;;;2.47;;
41719;SDS011;27405;53.316;-6.294;2023-02-03T09:09:02;17.05;;;2.70;;
41719;SDS011;27405;53.316;-6.294;2023-02-03T09:11:28;22.33;;;2.72;;
41719;SDS011;27405;53.316;-6.294;2023-02-03T09:13:54;20.75;;;2.70;;
41719;SDS011;27405;53.316;-6.294;2023-02-03T09:16:22;15.50;;;2.28;;
41719;SDS011;27405;53.316;-6.294;2023-02-03T09:18:48;16.35;;;2.70;;
41719;SDS011;27405;53.316;-6.294;2023-02-03T09:21:14;14.65;;;2.47;;
41719;SDS011;27405;53.316;-6.294;2023-02-03T09:23:41;17.65;;;2.55;;
41719;SDS011;27405;53.316;-6.294;2023-02-03T09:26:08;22.58;;;2.75;;
41719;SDS011;27405;53.316;-6.294;2023-02-03T09:28:35;13.73;;;2.40;;
41719;SDS011;27405;53.316;-6.294;2023-02-03T09:31:02;15.90;;;2.63;;
41719;SDS011;27405;53.316;-6.294;2023-02-03T09:33:29;15.20;;;2.95;;
41719;SDS011;27405;53.316;-6.294;2023-02-03T09:35:55;16.33;;;2.50;;
41719;SDS011;27405;53.316;-6.294;2023-02-03T09:38:22;18.05;;;2.67;;
41719;SDS011;27405;53.316;-6.294;2023-02-03T09:40:50;15.00;;;2.92;;
41719;SDS011;27405;53.316;-6.294;2023-02-03T09:46:10;14.85;;;2.22;;
41719;SDS011;27405;53.316;-6.294;2023-02-03T09:48:52;14.23;;;2.38;;
41719;SDS011;27405;53.316;-6.294;2023-02-03T09:51:24;13.83;;;2.20;;
41719;SDS011;27405;53.316;-6.294;2023-02-03T09:53:57;15.70;;;2.50;;
41719;SDS011;27405;53.316;-6.294;2023-02-03T09:56:32;14.43;;;2.30;;
41719;SDS011;27405;53.316;-6.294;2023-02-03T09:58:59;15.60;;;2.47;;
41719;SDS011;27405;53.316;-6.294;2023-02-03T10:01:27;13.85;;;2.15;;
41719;SDS011;27405;53.316;-6.294;2023-02-03T10:07:19;14.68;;;2.42;;
41719;SDS011;27405;53.316;-6.294;2023-02-03T10:18:28;11.27;;;1.83;;
41719;SDS011;27405;53.316;-6.294;2023-02-03T10:21:13;16.15;;;2.60;;
41719;SDS011;27405;53.316;-6.294;2023-02-03T10:23:49;16.52;;;2.40;;
41719;SDS011;27405;53.316;-6.294;2023-02-03T10:26:20;14.10;;;2.15;;
41719;SDS011;27405;53.316;-6.294;2023-02-03T10:28:53;14.65;;;1.95;;
41719;SDS011;27405;53.316;-6.294;2023-02-03T10:31:22;13.55;;;2.17;;
41719;SDS011;27405;53.316;-6.294;2023-02-03T10:33:55;10.95;;;2.28;;
41719;SDS011;27405;53.316;-6.294;2023-02-03T10:41:47;15.95;;;2.60;;
41719;SDS011;27405;53.316;-6.294;2023-02-03T10:44:13;16.35;;;1.90;;
41719;SDS011;27405;53.316;-6.294;2023-02-03T10:46:39;13.18;;;2.00;;
41719;SDS011;27405;53.316;-6.294;2023-02-03T10:49:08;12.98;;;2.38;;
41719;SDS011;27405;53.316;-6.294;2023-02-03T10:51:36;9.52;;;1.92;;
41719;SDS011;27405;53.316;-6.294;2023-02-03T10:54:25;12.27;;;2.10;;
41719;SDS011;27405;53.316;-6.294;2023-02-03T10:56:53;13.13;;;2.08;;
41719;SDS011;27405;53.316;-6.294;2023-02-03T10:59:34;8.70;;;1.83;;
41719;SDS011;27405;53.316;-6.294;2023-02-03T11:02:07;15.07;;;1.98;;
41719;SDS011;27405;53.316;-6.294;2023-02-03T11:04:35;10.50;;;2.15;;
41719;SDS011;27405;53.316;-6.294;2023-02-03T11:07:05;16.17;;;2.42;;
41719;SDS011;27405;53.316;-6.294;2023-02-03T11:09:36;16.02;;;2.58;;
41719;SDS011;27405;53.316;-6.294;2023-02-03T11:14:39;12.00;;;2.55;;
41719;SDS011;27405;53.316;-6.294;2023-02-03T11:17:09;11.85;;;2.20;;
41719;SDS011;27405;53.316;-6.294;2023-02-03T11:19:42;12.30;;;2.30;;
41719;SDS011;27405;53.316;-6.294;2023-02-03T11:24:36;7.90;;;1.50;;
41719;SDS011;27405;53.316;-6.294;2023-02-03T11:27:14;13.05;;;1.92;;
41719;SDS011;27405;53.316;-6.294;2023-02-03T11:29:43;11.38;;;2.08;;
41719;SDS011;27405;53.316;-6.294;2023-02-03T11:34:57;11.35;;;1.77;;
41719;SDS011;27405;53.316;-6.294;2023-02-03T11:37:43;10.88;;;1.60;;
41719;SDS011;27405;53.316;-6.294;2023-02-03T11:40:11;14.25;;;2.08;;
41719;SDS011;27405;53.316;-6.294;2023-02-03T11:50:30;12.60;;;1.70;;
41719;SDS011;27405;53.316;-6.294;2023-02-03T11:53:13;11.15;;;1.55;;
41719;SDS011;27405;53.316;-6.294;2023-02-03T11:55:57;9.95;;;1.77;;
41719;SDS011;27405;53.316;-6.294;2023-02-03T12:12:56;8.38;;;1.83;;
41719;SDS011;27405;53.316;-6.294;2023-02-03T12:24:09;9.13;;;1.80;;
41719;SDS011;27405;53.316;-6.294;2023-02-03T12:29:41;8.52;;;2.05;;
41719;SDS011;27405;53.316;-6.294;2023-02-03T12:32:13;10.27;;;1.77;;
41719;SDS011;27405;53.316;-6.294;2023-02-03T12:40:47;9.25;;;2.00;;
41719;SDS011;27405;53.316;-6.294;2023-02-03T12:45:44;10.75;;;1.77;;
41719;SDS011;27405;53.316;-6.294;2023-02-03T12:48:45;7.15;;;1.50;;
41719;SDS011;27405;53.316;-6.294;2023-02-03T13:03:05;7.57;;;1.25;;
41719;SDS011;27405;53.316;-6.294;2023-02-03T13:05:40;9.00;;;1.65;;
41719;SDS011;27405;53.316;-6.294;2023-02-03T13:13:41;10.23;;;1.67;;
41719;SDS011;27405;53.316;-6.294;2023-02-03T13:16:11;12.45;;;2.30;;
41719;SDS011;27405;53.316;-6.294;2023-02-03T13:18:43;9.35;;;1.83;;
41719;SDS011;27405;53.316;-6.294;2023-02-03T13:21:12;10.43;;;1.83;;
41719;SDS011;27405;53.316;-6.294;2023-02-03T13:23:43;4.38;;;1.30;;
41719;SDS011;27405;53.316;-6.294;2023-02-03T13:26:33;6.63;;;1.50;;
41719;SDS011;27405;53.316;-6.294;2023-02-03T13:42:54;8.50;;;1.30;;
41719;SDS011;27405;53.316;-6.294;2023-02-03T13:45:39;4.57;;;1.10;;
41719;SDS011;27405;53.316;-6.294;2023-02-03T13:48:28;4.72;;;1.13;;
41719;SDS011;27405;53.316;-6.294;2023-02-03T13:51:06;6.97;;;1.40;;
41719;SDS011;27405;53.316;-6.294;2023-02-03T13:53:38;8.68;;;1.90;;
41719;SDS011;27405;53.316;-6.294;2023-02-03T13:56:07;4.60;;;1.33;;
41719;SDS011;27405;53.316;-6.294;2023-02-03T13:58:41;8.95;;;1.90;;
41719;SDS011;27405;53.316;-6.294;2023-02-03T14:04:00;5.43;;;1.13;;
41719;SDS011;27405;53.316;-6.294;2023-02-03T14:12:19;9.20;;;1.55;;
41719;SDS011;27405;53.316;-6.294;2023-02-03T14:19:58;5.82;;;1.67;;
41719;SDS011;27405;53.316;-6.294;2023-02-03T14:22:24;6.53;;;1.45;;
41719;SDS011;27405;53.316;-6.294;2023-02-03T14:24:51;5.32;;;1.30;;
41719;SDS011;27405;53.316;-6.294;2023-02-03T14:27:24;5.90;;;1.55;;
41719;SDS011;27405;53.316;-6.294;2023-02-03T14:32:47;7.15;;;1.60;;
41719;SDS011;27405;53.316;-6.294;2023-02-03T14:35:14;5.47;;;1.48;;
41719;SDS011;27405;53.316;-6.294;2023-02-03T14:37:49;6.37;;;1.30;;
41719;SDS011;27405;53.316;-6.294;2023-02-03T14:49:18;12.80;;;1.90;;
41719;SDS011;27405;53.316;-6.294;2023-02-03T15:02:31;7.88;;;1.50;;
41719;SDS011;27405;53.316;-6.294;2023-02-03T15:12:48;3.92;;;1.48;;
41719;SDS011;27405;53.316;-6.294;2023-02-03T15:15:48;6.82;;;1.63;;
41719;SDS011;27405;53.316;-6.294;2023-02-03T15:18:19;8.75;;;1.67;;
41719;SDS011;27405;53.316;-6.294;2023-02-03T15:20:55;12.48;;;2.03;;
41719;SDS011;27405;53.316;-6.294;2023-02-03T15:23:26;11.45;;;1.60;;
41719;SDS011;27405;53.316;-6.294;2023-02-03T15:26:12;6.53;;;1.65;;
41719;SDS011;27405;53.316;-6.294;2023-02-03T15:28:42;11.98;;;2.30;;
41719;SDS011;27405;53.316;-6.294;2023-02-03T15:31:13;9.63;;;1.52;;
41719;SDS011;27405;53.316;-6.294;2023-02-03T15:34:08;5.28;;;1.80;;
41719;SDS011;27405;53.316;-6.294;2023-02-03T15:36:42;5.53;;;1.50;;
41719;SDS011;27405;53.316;-6.294;2023-02-03T15:41:42;4.28;;;1.40;;
41719;SDS011;27405;53.316;-6.294;2023-02-03T15:44:12;4.15;;;1.42;;
41719;SDS011;27405;53.316;-6.294;2023-02-03T15:47:03;3.40;;;1.30;;
41719;SDS011;27405;53.316;-6.294;2023-02-03T15:49:40;9.10;;;1.60;;
41719;SDS011;27405;53.316;-6.294;2023-02-03T15:52:15;11.05;;;1.90;;
41719;SDS011;27405;53.316;-6.294;2023-02-03T15:54:44;7.85;;;1.52;;
41719;SDS011;27405;53.316;-6.294;2023-02-03T15:57:27;14.60;;;2.25;;
41719;SDS011;27405;53.316;-6.294;2023-02-03T16:00:38;8.77;;;2.42;;
41719;SDS011;27405;53.316;-6.294;2023-02-03T16:02:56;10.95;;;2.35;;
41719;SDS011;27405;53.316;-6.294;2023-02-03T16:05:25;7.03;;;2.20;;
41719;SDS011;27405;53.316;-6.294;2023-02-03T16:07:53;6.10;;;2.88;;
41719;SDS011;27405;53.316;-6.294;2023-02-03T16:10:30;4.82;;;1.58;;
41719;SDS011;27405;53.316;-6.294;2023-02-03T16:16:20;7.90;;;1.80;;
41719;SDS011;27405;53.316;-6.294;2023-02-03T16:18:57;8.18;;;2.50;;
41719;SDS011;27405;53.316;-6.294;2023-02-03T16:26:24;5.57;;;2.80;;
41719;SDS011;27405;53.316;-6.294;2023-02-03T16:28:56;7.15;;;1.95;;
41719;SDS011;27405;53.316;-6.294;2023-02-03T16:31:45;7.45;;;1.98;;
41719;SDS011;27405;53.316;-6.294;2023-02-03T16:34:29;6.60;;;2.00;;
41719;SDS011;27405;53.316;-6.294;2023-02-03T16:40:21;15.40;;;6.55;;
41719;SDS011;27405;53.316;-6.294;2023-02-03T16:43:10;9.55;;;3.72;;
41719;SDS011;27405;53.316;-6.294;2023-02-03T16:45:56;9.25;;;2.35;;
41719;SDS011;27405;53.316;-6.294;2023-02-03T16:48:41;8.25;;;3.47;;
41719;SDS011;27405;53.316;-6.294;2023-02-03T16:51:25;6.22;;;1.90;;
41719;SDS011;27405;53.316;-6.294;2023-02-03T16:53:56;9.75;;;2.78;;
41719;SDS011;27405;53.316;-6.294;2023-02-03T16:56:22;7.55;;;2.13;;
41719;SDS011;27405;53.316;-6.294;2023-02-03T16:58:48;4.22;;;2.22;;
41719;SDS011;27405;53.316;-6.294;2023-02-03T17:01:13;8.30;;;2.85;;
41719;SDS011;27405;53.316;-6.294;2023-02-03T17:03:39;4.97;;;2.10;;
41719;SDS011;27405;53.316;-6.294;2023-02-03T17:06:08;8.93;;;2.50;;
41719;SDS011;27405;53.316;-6.294;2023-02-03T17:08:36;5.53;;;2.75;;
41719;SDS011;27405;53.316;-6.294;2023-02-03T17:11:05;10.55;;;2.47;;
41719;SDS011;27405;53.316;-6.294;2023-02-03T17:13:33;7.05;;;2.72;;
41719;SDS011;27405;53.316;-6.294;2023-02-03T17:16:05;9.63;;;4.05;;
41719;SDS011;27405;53.316;-6.294;2023-02-03T17:18:33;7.90;;;2.90;;
41719;SDS011;27405;53.316;-6.294;2023-02-03T17:21:03;8.75;;;4.15;;
41719;SDS011;27405;53.316;-6.294;2023-02-03T17:23:30;12.93;;;4.30;;
41719;SDS011;27405;53.316;-6.294;2023-02-03T17:25:56;12.77;;;5.50;;
41719;SDS011;27405;53.316;-6.294;2023-02-03T17:28:22;10.88;;;4.25;;
41719;SDS011;27405;53.316;-6.294;2023-02-03T17:30:54;8.93;;;3.38;;
41719;SDS011;27405;53.316;-6.294;2023-02-03T17:33:21;12.27;;;4.15;;
41719;SDS011;27405;53.316;-6.294;2023-02-03T17:35:52;6.18;;;2.78;;
41719;SDS011;27405;53.316;-6.294;2023-02-03T17:38:28;7.25;;;2.53;;
41719;SDS011;27405;53.316;-6.294;2023-02-03T17:40:54;8.00;;;2.63;;
41719;SDS011;27405;53.316;-6.294;2023-02-03T17:43:20;7.35;;;2.53;;
41719;SDS011;27405;53.316;-6.294;2023-02-03T17:45:45;11.48;;;3.28;;
41719;SDS011;27405;53.316;-6.294;2023-02-03T17:48:11;9.20;;;3.55;;
41719;SDS011;27405;53.316;-6.294;2023-02-03T17:50:36;10.90;;;4.13;;
41719;SDS011;27405;53.316;-6.294;2023-02-03T17:53:02;13.32;;;4.90;;